createdAt,value
2022-09-13T00:01:22.827Z,6.18
2022-09-13T00:03:49.694Z,9.02
2022-09-13T00:06:19.573Z,8.93
2022-09-13T00:08:46.864Z,8.63
2022-09-13T00:11:25.108Z,6.97
2022-09-13T00:13:53.387Z,7.43
2022-09-13T00:16:24.858Z,7.53
2022-09-13T00:18:52.915Z,7.65
2022-09-13T00:21:21.480Z,7.60
2022-09-13T00:23:51.288Z,7.07
2022-09-13T00:26:28.657Z,8.50
2022-09-13T00:28:58.317Z,6.22
2022-09-13T00:31:27.561Z,7.85
2022-09-13T00:33:54.704Z,8.70
2022-09-13T00:36:21.498Z,7.32
2022-09-13T00:38:48.275Z,6.00
2022-09-13T00:41:17.455Z,8.70
2022-09-13T00:43:56.681Z,7.65
2022-09-13T00:46:41.988Z,6.10
2022-09-13T00:49:31.877Z,12.50
2022-09-13T00:52:03.596Z,7.53
2022-09-13T00:54:45.705Z,8.93
2022-09-13T00:57:14.116Z,8.23
2022-09-13T00:59:45.782Z,8.95
2022-09-13T01:02:13.402Z,8.77
2022-09-13T01:04:42.034Z,6.80
2022-09-13T01:07:11.675Z,7.30
2022-09-13T01:09:41.850Z,9.00
2022-09-13T01:12:22.313Z,10.00
2022-09-13T01:14:51.153Z,6.88
2022-09-13T01:17:18.483Z,7.72
2022-09-13T01:19:45.341Z,8.25
2022-09-13T01:22:47.664Z,9.75
2022-09-13T01:25:48.422Z,9.00
2022-09-13T01:28:52.765Z,7.18
2022-09-13T01:31:28.077Z,9.90
2022-09-13T01:34:02.782Z,8.50
2022-09-13T01:36:35.555Z,9.55
2022-09-13T01:39:15.098Z,8.68
2022-09-13T01:41:44.527Z,7.28
2022-09-13T01:44:11.201Z,8.70
2022-09-13T01:47:06.434Z,6.70
2022-09-13T01:49:40.177Z,6.18
2022-09-13T01:52:17.397Z,7.25
2022-09-13T01:54:56.613Z,7.35
2022-09-13T01:57:29.438Z,5.72
2022-09-13T02:00:08.773Z,9.00
2022-09-13T02:02:47.654Z,7.25
2022-09-13T02:05:33.167Z,8.68
2022-09-13T02:08:05.787Z,6.90
2022-09-13T02:10:42.498Z,6.72
2022-09-13T02:13:15.553Z,5.85
2022-09-13T02:15:47.077Z,6.00
2022-09-13T02:18:35.646Z,6.13
2022-09-13T02:21:18.563Z,5.53
2022-09-13T02:23:54.241Z,6.07
2022-09-13T02:26:23.924Z,6.80
2022-09-13T02:28:58.153Z,6.47
2022-09-13T02:31:47.808Z,5.95
2022-09-13T02:34:20.315Z,9.50
2022-09-13T02:36:49.226Z,5.22
2022-09-13T02:39:18.125Z,5.65
2022-09-13T02:42:12.800Z,7.00
2022-09-13T02:44:46.089Z,7.43
2022-09-13T02:47:47.206Z,5.50
2022-09-13T02:50:32.038Z,6.97
2022-09-13T02:53:35.790Z,7.50
2022-09-13T02:56:27.337Z,6.82
2022-09-13T02:59:05.821Z,6.40
2022-09-13T03:01:35.462Z,5.82
2022-09-13T03:04:03.381Z,5.57
2022-09-13T03:06:30.347Z,5.78
2022-09-13T03:09:00.678Z,5.97
2022-09-13T03:11:56.847Z,5.00
2022-09-13T03:14:32.116Z,6.15
2022-09-13T03:17:15.578Z,5.53
2022-09-13T03:20:26.475Z,6.70
2022-09-13T03:23:04.949Z,6.25
2022-09-13T03:26:05.764Z,6.93
2022-09-13T03:28:57.547Z,6.00
2022-09-13T03:31:37.249Z,5.95
2022-09-13T03:34:10.516Z,6.43
2022-09-13T03:36:45.942Z,8.52
2022-09-13T03:39:44.339Z,7.00
2022-09-13T03:42:22.738Z,8.40
2022-09-13T03:44:53.566Z,6.13
2022-09-13T03:47:22.117Z,6.88
2022-09-13T03:49:50.877Z,5.25
2022-09-13T03:52:18.458Z,7.50
2022-09-13T03:54:45.338Z,6.40
2022-09-13T03:57:21.049Z,7.95
2022-09-13T03:59:51.382Z,5.78
2022-09-13T04:02:19.385Z,5.75
2022-09-13T04:04:47.010Z,6.45
2022-09-13T04:07:19.281Z,4.97
2022-09-13T04:09:46.108Z,5.00
2022-09-13T04:12:14.336Z,5.05
2022-09-13T04:14:43.171Z,5.55
2022-09-13T04:17:10.430Z,4.82
2022-09-13T04:19:37.297Z,5.78
2022-09-13T04:22:04.466Z,6.20
2022-09-13T04:24:31.735Z,4.57
2022-09-13T04:26:58.604Z,5.18
2022-09-13T04:29:26.570Z,5.40
2022-09-13T04:31:55.541Z,4.60
2022-09-13T04:34:23.244Z,4.45
2022-09-13T04:36:52.941Z,6.35
2022-09-13T04:39:20.837Z,5.10
2022-09-13T04:41:48.960Z,3.50
2022-09-13T04:44:17.487Z,3.30
2022-09-13T04:46:48.121Z,3.47
2022-09-13T04:49:16.228Z,5.50
2022-09-13T04:51:43.200Z,4.10
2022-09-13T04:54:15.160Z,4.30
2022-09-13T04:56:43.211Z,6.05
2022-09-13T04:59:11.444Z,4.57
2022-09-13T05:01:45.785Z,5.68
2022-09-13T05:04:12.671Z,4.55
2022-09-13T05:06:39.388Z,2.92
2022-09-13T05:09:06.699Z,6.30
2022-09-13T05:11:33.612Z,4.95
2022-09-13T05:14:04.479Z,11.80
2022-09-13T05:16:33.150Z,4.18
2022-09-13T05:19:03.798Z,5.45
2022-09-13T05:21:31.358Z,5.65
2022-09-13T05:24:01.452Z,7.25
2022-09-13T05:26:31.254Z,7.32
2022-09-13T05:28:59.785Z,7.07
2022-09-13T05:31:39.126Z,7.95
2022-09-13T05:34:11.285Z,6.07
2022-09-13T05:39:29.659Z,7.22
2022-09-13T05:41:55.059Z,5.50
2022-09-13T05:46:55.736Z,5.30
2022-09-13T05:49:22.489Z,4.70
2022-09-13T05:51:49.297Z,4.18
2022-09-13T05:54:16.750Z,6.35
2022-09-13T05:56:43.623Z,9.00
2022-09-13T05:59:14.771Z,6.22
2022-09-13T06:01:42.107Z,5.03
2022-09-13T06:04:08.891Z,4.55
2022-09-13T06:06:41.903Z,6.80
2022-09-13T06:09:11.523Z,4.88
2022-09-13T06:11:38.259Z,4.95
2022-09-13T06:14:05.019Z,4.85
2022-09-13T06:16:31.829Z,4.47
2022-09-13T06:18:59.326Z,4.93
2022-09-13T06:21:29.166Z,4.20
2022-09-13T06:23:57.132Z,6.07
2022-09-13T06:26:26.787Z,3.40
2022-09-13T06:28:55.509Z,4.50
2022-09-13T06:31:24.930Z,4.93
2022-09-13T06:34:00.914Z,5.80
2022-09-13T06:36:28.180Z,5.03
2022-09-13T06:38:54.978Z,4.35
2022-09-13T06:41:24.996Z,3.25
2022-09-13T06:43:57.631Z,6.05
2022-09-13T06:46:25.660Z,5.85
2022-09-13T06:48:53.218Z,3.90
2022-09-13T06:51:22.491Z,3.92
2022-09-13T06:53:50.088Z,3.85
2022-09-13T06:56:19.354Z,5.90
2022-09-13T06:58:47.645Z,3.97
2022-09-13T07:01:18.588Z,3.08
2022-09-13T07:03:51.325Z,4.97
2022-09-13T07:06:22.527Z,4.38
2022-09-13T07:08:51.259Z,2.83
2022-09-13T07:11:20.259Z,3.42
2022-09-13T07:13:59.642Z,3.38
2022-09-13T07:16:29.218Z,4.10
2022-09-13T07:18:58.218Z,2.35
2022-09-13T07:21:26.434Z,4.22
2022-09-13T07:23:55.385Z,4.63
2022-09-13T07:26:22.915Z,3.05
2022-09-13T07:28:53.188Z,2.72
2022-09-13T07:31:28.925Z,2.53
2022-09-13T07:33:58.094Z,6.05
2022-09-13T07:36:26.474Z,4.95
2022-09-13T07:38:53.579Z,2.80
2022-09-13T07:41:23.521Z,2.55
2022-09-13T07:43:51.908Z,3.35
2022-09-13T07:46:27.431Z,2.00
2022-09-13T07:48:56.743Z,3.25
2022-09-13T07:51:32.504Z,2.63
2022-09-13T07:54:04.998Z,2.40
2022-09-13T07:56:37.150Z,3.38
2022-09-13T07:59:06.874Z,2.42
2022-09-13T08:01:39.471Z,4.05
2022-09-13T08:04:12.218Z,4.70
2022-09-13T08:06:41.231Z,3.70
2022-09-13T08:09:09.591Z,2.55
2022-09-13T08:11:39.613Z,3.00
2022-09-13T08:14:08.153Z,2.53
2022-09-13T08:16:35.112Z,5.25
2022-09-13T08:19:03.838Z,6.03
2022-09-13T08:21:36.225Z,3.60
2022-09-13T08:24:04.203Z,2.55
2022-09-13T08:26:33.685Z,3.17
2022-09-13T08:29:03.768Z,1.63
2022-09-13T08:31:31.293Z,4.20
2022-09-13T08:33:58.846Z,2.15
2022-09-13T08:36:28.910Z,3.17
2022-09-13T08:38:59.210Z,1.92
2022-09-13T08:41:47.938Z,1.20
2022-09-13T08:44:37.349Z,4.28
2022-09-13T08:47:27.497Z,2.80
2022-09-13T08:50:31.311Z,2.40
2022-09-13T08:53:17.275Z,2.83
2022-09-13T08:56:11.481Z,1.33
2022-09-13T08:59:05.638Z,2.53
2022-09-13T09:02:03.160Z,2.40
2022-09-13T09:04:45.045Z,1.33
2022-09-13T09:10:17.994Z,1.08
2022-09-13T09:12:53.590Z,1.52
2022-09-13T09:15:40.444Z,2.90
2022-09-13T09:18:14.846Z,4.20
2022-09-13T09:20:46.261Z,1.88
2022-09-13T09:23:21.461Z,2.28
2022-09-13T09:25:53.707Z,2.78
2022-09-13T09:28:22.498Z,4.03
2022-09-13T09:31:38.808Z,4.28
2022-09-13T09:34:23.625Z,2.78
2022-09-13T09:37:05.995Z,2.05
2022-09-13T09:39:33.624Z,1.77
2022-09-13T09:42:00.852Z,1.98
2022-09-13T09:44:33.796Z,3.55
2022-09-13T09:47:18.180Z,1.42
2022-09-13T09:50:07.574Z,1.25
2022-09-13T09:52:48.308Z,2.20
2022-09-13T09:55:29.179Z,3.00
2022-09-13T09:58:06.287Z,1.83
2022-09-13T10:00:35.593Z,1.70
2022-09-13T10:03:05.966Z,2.10
2022-09-13T10:05:34.362Z,2.88
2022-09-13T10:08:08.926Z,2.55
2022-09-13T10:10:57.523Z,1.38
2022-09-13T10:13:28.526Z,1.35
2022-09-13T10:16:06.168Z,1.58
2022-09-13T10:18:50.458Z,5.70
2022-09-13T10:21:24.551Z,2.65
2022-09-13T10:23:51.737Z,2.08
2022-09-13T10:26:22.145Z,1.17
2022-09-13T10:29:08.507Z,1.50
2022-09-13T10:31:38.896Z,4.25
2022-09-13T10:34:11.510Z,2.85
2022-09-13T10:36:58.960Z,1.05
2022-09-13T10:39:28.426Z,2.88
2022-09-13T10:41:59.770Z,1.30
2022-09-13T10:44:32.249Z,0.98
2022-09-13T10:47:03.248Z,1.67
2022-09-13T10:49:48.997Z,3.40
2022-09-13T10:52:33.643Z,2.50
2022-09-13T10:55:18.810Z,0.63
2022-09-13T10:57:54.515Z,1.05
2022-09-13T11:00:32.976Z,1.77
2022-09-13T11:03:57.610Z,3.50
2022-09-13T11:06:42.460Z,0.90
2022-09-13T11:09:14.825Z,0.93
2022-09-13T11:11:56.855Z,2.33
2022-09-13T11:14:50.770Z,1.30
2022-09-13T11:17:23.405Z,1.02
2022-09-13T11:20:15.204Z,1.25
2022-09-13T11:22:53.879Z,1.15
2022-09-13T11:25:38.642Z,1.80
2022-09-13T11:28:35.744Z,2.13
2022-09-13T11:31:06.195Z,1.60
2022-09-13T11:33:57.408Z,1.13
2022-09-13T11:36:39.219Z,4.78
2022-09-13T11:39:23.575Z,0.90
2022-09-13T11:42:08.532Z,2.20
2022-09-13T11:49:59.131Z,1.45
2022-09-13T11:52:35.862Z,0.68
2022-09-13T11:55:12.170Z,0.50
2022-09-13T11:57:44.306Z,0.77
2022-09-13T12:00:29.121Z,0.75
2022-09-13T12:03:11.349Z,2.03
2022-09-13T12:05:49.359Z,2.17
2022-09-13T12:08:27.569Z,3.92
2022-09-13T12:10:57.192Z,2.38
2022-09-13T12:13:32.741Z,1.42
2022-09-13T12:16:10.116Z,1.23
2022-09-13T12:18:44.501Z,0.90
2022-09-13T12:21:19.365Z,1.38
2022-09-13T12:24:01.284Z,3.50
2022-09-13T12:26:33.961Z,7.20
2022-09-13T12:29:17.443Z,3.53
2022-09-13T12:31:44.258Z,2.05
2022-09-13T12:34:23.951Z,1.15
2022-09-13T12:37:16.739Z,2.28
2022-09-13T12:39:56.280Z,2.95
2022-09-13T12:42:52.969Z,0.50
2022-09-13T12:45:47.277Z,2.05
2022-09-13T12:48:46.448Z,0.70
2022-09-13T12:51:56.648Z,2.40
2022-09-13T12:54:29.655Z,2.42
2022-09-13T12:57:28.241Z,1.63
2022-09-13T13:00:16.677Z,2.67
2022-09-13T13:03:00.741Z,0.68
2022-09-13T13:05:30.914Z,0.63
2022-09-13T13:08:17.210Z,1.63
2022-09-13T13:10:44.026Z,1.27
2022-09-13T13:13:24.873Z,1.05
2022-09-13T13:15:51.597Z,1.70
2022-09-13T13:18:43.355Z,1.52
2022-09-13T13:21:39.073Z,1.75
2022-09-13T13:24:18.743Z,2.53
2022-09-13T13:26:57.602Z,4.95
2022-09-13T13:29:24.933Z,1.15
2022-09-13T13:31:57.729Z,1.83
2022-09-13T13:34:24.439Z,1.08
2022-09-13T13:37:05.454Z,2.70
2022-09-13T13:39:34.166Z,0.52
2022-09-13T13:42:03.109Z,2.53
2022-09-13T13:44:30.044Z,1.42
2022-09-13T13:47:09.057Z,1.05
2022-09-13T13:49:38.795Z,0.75
2022-09-13T13:52:21.909Z,1.70
2022-09-13T13:54:53.525Z,1.67
2022-09-13T13:57:31.889Z,1.38
2022-09-13T14:00:10.943Z,0.95
2022-09-13T14:03:09.889Z,0.93
2022-09-13T14:06:01.009Z,1.60
2022-09-13T14:08:54.356Z,1.00
2022-09-13T14:11:33.283Z,1.05
2022-09-13T14:14:27.939Z,3.17
2022-09-13T14:17:08.919Z,1.20
2022-09-13T14:19:49.061Z,5.18
2022-09-13T14:22:23.963Z,1.75
2022-09-13T14:24:58.921Z,1.02
2022-09-13T14:27:33.363Z,2.47
2022-09-13T14:30:04.568Z,2.38
2022-09-13T14:35:24.744Z,1.58
2022-09-13T14:37:51.705Z,0.88
2022-09-13T14:40:23.730Z,1.42
2022-09-13T14:42:53.923Z,1.55
2022-09-13T14:45:36.057Z,3.15
2022-09-13T14:48:07.638Z,1.65
2022-09-13T14:50:40.555Z,0.80
2022-09-13T14:53:13.426Z,1.30
2022-09-13T14:55:43.771Z,1.35
2022-09-13T14:58:25.313Z,1.00
2022-09-13T15:01:01.698Z,1.25
2022-09-13T15:03:28.742Z,1.85
2022-09-13T15:06:01.614Z,1.30
2022-09-13T15:08:34.567Z,1.15
2022-09-13T15:11:03.736Z,1.02
2022-09-13T15:13:30.727Z,3.63
2022-09-13T15:15:58.085Z,2.22
2022-09-13T15:18:36.440Z,1.25
2022-09-13T15:21:14.833Z,1.48
2022-09-13T15:23:43.359Z,1.02
2022-09-13T15:26:13.129Z,1.52
2022-09-13T15:28:48.853Z,3.45
2022-09-13T15:31:25.922Z,1.65
2022-09-13T15:34:17.606Z,1.55
2022-09-13T15:39:20.187Z,2.45
2022-09-13T15:42:00.999Z,2.33
2022-09-13T15:44:29.921Z,2.30
2022-09-13T15:47:02.253Z,1.35
2022-09-13T15:49:29.516Z,1.40
2022-09-13T15:51:59.327Z,1.30
2022-09-13T15:54:46.318Z,1.55
2022-09-13T15:57:27.268Z,1.08
2022-09-13T15:59:56.149Z,2.67
2022-09-13T16:02:31.129Z,1.80
2022-09-13T16:04:58.303Z,3.85
2022-09-13T16:07:26.237Z,1.58
2022-09-13T16:09:53.637Z,1.88
2022-09-13T16:12:23.525Z,0.70
2022-09-13T16:14:50.474Z,1.23
2022-09-13T16:17:26.141Z,2.22
2022-09-13T16:19:54.278Z,2.25
2022-09-13T16:22:21.771Z,1.85
2022-09-13T16:24:48.738Z,1.73
2022-09-13T16:27:18.265Z,1.52
2022-09-13T16:29:45.406Z,3.63
2022-09-13T16:32:12.257Z,1.35
2022-09-13T16:34:39.283Z,1.63
2022-09-13T16:37:06.042Z,3.28
2022-09-13T16:39:32.731Z,1.77
2022-09-13T16:41:59.570Z,1.42
2022-09-13T16:44:26.448Z,2.58
2022-09-13T16:46:53.283Z,2.17
2022-09-13T16:49:20.126Z,2.50
2022-09-13T16:51:46.896Z,0.80
2022-09-13T16:54:13.960Z,1.13
2022-09-13T16:56:41.441Z,2.13
2022-09-13T16:59:08.425Z,2.10
2022-09-13T17:01:35.939Z,3.33
2022-09-13T17:04:03.521Z,2.05
2022-09-13T17:06:30.300Z,6.60
2022-09-13T17:09:01.503Z,8.85
2022-09-13T17:11:31.663Z,5.72
2022-09-13T17:13:59.734Z,6.45
2022-09-13T17:16:35.194Z,4.57
2022-09-13T17:19:06.230Z,3.30
2022-09-13T17:21:34.106Z,2.70
2022-09-13T17:24:01.627Z,5.90
2022-09-13T17:26:28.933Z,2.92
2022-09-13T17:28:55.800Z,4.50
2022-09-13T17:31:22.830Z,6.18
2022-09-13T17:33:50.112Z,4.18
2022-09-13T17:36:17.323Z,5.78
2022-09-13T17:38:44.328Z,4.65
2022-09-13T17:41:16.738Z,2.28
2022-09-13T17:43:44.509Z,4.25
2022-09-13T17:46:32.151Z,7.50
2022-09-13T17:49:00.210Z,6.78
2022-09-13T17:51:30.422Z,5.65
2022-09-13T17:54:00.285Z,9.65
2022-09-13T17:56:36.218Z,7.85
2022-09-13T17:59:18.069Z,8.57
2022-09-13T18:01:48.511Z,5.03
2022-09-13T18:04:17.910Z,8.95
2022-09-13T18:06:44.933Z,7.70
2022-09-13T18:09:13.933Z,6.47
2022-09-13T18:11:41.248Z,5.80
2022-09-13T18:14:12.345Z,10.00
2022-09-13T18:16:39.322Z,8.40
2022-09-13T18:19:06.015Z,6.25
2022-09-13T18:21:32.797Z,10.65
2022-09-13T18:24:01.562Z,8.27
2022-09-13T18:26:29.982Z,9.60
2022-09-13T18:29:01.792Z,6.90
2022-09-13T18:31:30.291Z,7.53
2022-09-13T18:34:02.611Z,5.40
2022-09-13T18:36:30.842Z,6.72
2022-09-13T18:38:58.047Z,7.45
2022-09-13T18:41:37.304Z,6.05
2022-09-13T18:44:07.464Z,5.82
2022-09-13T18:46:35.489Z,8.27
2022-09-13T18:49:03.405Z,4.60
2022-09-13T18:51:35.807Z,4.32
2022-09-13T18:54:03.869Z,8.23
2022-09-13T18:56:30.823Z,4.55
2022-09-13T18:59:00.411Z,4.43
2022-09-13T19:01:29.903Z,5.07
2022-09-13T19:04:01.802Z,3.47
2022-09-13T19:06:31.577Z,5.20
2022-09-13T19:08:59.497Z,5.18
2022-09-13T19:11:48.051Z,4.13
2022-09-13T19:14:23.450Z,2.28
2022-09-13T19:16:51.532Z,4.88
2022-09-13T19:19:19.040Z,4.50
2022-09-13T19:21:46.048Z,2.28
2022-09-13T19:24:18.259Z,3.20
2022-09-13T19:26:47.124Z,4.00
2022-09-13T19:29:17.568Z,4.10
2022-09-13T19:31:49.554Z,3.40
2022-09-13T19:34:18.909Z,3.47
2022-09-13T19:36:46.566Z,6.32
2022-09-13T19:39:13.428Z,4.57
2022-09-13T19:41:40.976Z,2.78
2022-09-13T19:44:08.577Z,3.65
2022-09-13T19:46:38.727Z,5.05
2022-09-13T19:49:06.763Z,8.85
2022-09-13T19:51:36.813Z,2.95
2022-09-13T19:54:05.034Z,5.70
2022-09-13T19:56:38.031Z,3.90
2022-09-13T19:59:06.158Z,4.40
2022-09-13T20:01:35.878Z,4.78
2022-09-13T20:04:05.328Z,3.33
2022-09-13T20:06:38.483Z,4.63
2022-09-13T20:09:05.673Z,2.90
2022-09-13T20:11:33.523Z,6.30
2022-09-13T20:14:00.991Z,4.75
2022-09-13T20:16:30.177Z,3.28
2022-09-13T20:18:57.844Z,4.75
2022-09-13T20:21:26.188Z,3.83
2022-09-13T20:23:58.953Z,5.43
2022-09-13T20:26:26.807Z,3.88
2022-09-13T20:28:57.850Z,5.38
2022-09-13T20:31:25.043Z,4.00
2022-09-13T20:33:56.208Z,3.92
2022-09-13T20:36:23.732Z,4.22
2022-09-13T20:38:52.903Z,3.58
2022-09-13T20:41:20.290Z,4.63
2022-09-13T20:43:48.871Z,11.13
2022-09-13T20:46:17.195Z,12.93
2022-09-13T20:48:44.648Z,14.88
2022-09-13T20:51:14.294Z,11.23
2022-09-13T20:53:41.022Z,9.00
2022-09-13T20:56:16.314Z,12.63
2022-09-13T20:58:44.273Z,12.95
2022-09-13T21:01:13.922Z,10.55
2022-09-13T21:03:43.009Z,9.52
2022-09-13T21:06:10.596Z,11.63
2022-09-13T21:08:44.172Z,6.88
2022-09-13T21:11:23.880Z,8.07
2022-09-13T21:13:59.200Z,6.40
2022-09-13T21:16:31.750Z,8.90
2022-09-13T21:19:00.536Z,6.85
2022-09-13T21:21:30.543Z,6.47
2022-09-13T21:23:58.696Z,5.10
2022-09-13T21:26:27.372Z,5.35
2022-09-13T21:28:55.588Z,4.93
2022-09-13T21:31:25.479Z,7.40
2022-09-13T21:34:07.565Z,6.18
2022-09-13T21:36:35.801Z,6.88
2022-09-13T21:39:03.754Z,5.10
2022-09-13T21:41:31.415Z,5.28
2022-09-13T21:43:58.520Z,5.00
2022-09-13T21:46:27.936Z,4.38
2022-09-13T21:48:56.681Z,4.55
2022-09-13T21:51:26.211Z,7.05
2022-09-13T21:53:58.684Z,8.75
2022-09-13T21:56:28.566Z,3.28
2022-09-13T21:59:00.420Z,3.40
2022-09-13T22:01:39.153Z,9.60
2022-09-13T22:04:07.475Z,5.68
2022-09-13T22:06:37.241Z,5.95
2022-09-13T22:09:07.432Z,4.32
2022-09-13T22:11:40.126Z,5.65
2022-09-13T22:14:09.761Z,6.57
2022-09-13T22:16:38.177Z,8.55
2022-09-13T22:19:26.196Z,5.45
2022-09-13T22:21:56.361Z,5.22
2022-09-13T22:24:25.865Z,5.68
2022-09-13T22:26:54.290Z,9.25
2022-09-13T22:29:22.255Z,6.90
2022-09-13T22:31:50.868Z,9.30
2022-09-13T22:34:24.123Z,12.48
2022-09-13T22:36:51.544Z,68.40
2022-09-13T22:39:18.654Z,90.88
2022-09-13T22:41:46.041Z,23.25
2022-09-13T22:44:13.116Z,9.68
2022-09-13T22:46:46.755Z,10.07
2022-09-13T22:49:16.211Z,8.82
2022-09-13T22:51:45.299Z,6.07
2022-09-13T22:54:13.730Z,5.35
2022-09-13T22:56:40.944Z,5.03
2022-09-13T22:59:19.144Z,8.10
2022-09-13T23:01:46.288Z,8.98
2022-09-13T23:04:13.922Z,15.10
2022-09-13T23:06:46.542Z,6.50
2022-09-13T23:09:18.061Z,11.63
2022-09-13T23:11:45.615Z,10.52
2022-09-13T23:14:14.863Z,15.25
2022-09-13T23:16:53.283Z,10.68
2022-09-13T23:19:22.914Z,11.93
2022-09-13T23:21:52.116Z,8.93
2022-09-13T23:24:25.144Z,8.45
2022-09-13T23:26:56.326Z,7.38
2022-09-13T23:29:24.702Z,7.90
2022-09-13T23:31:53.259Z,5.78
2022-09-13T23:34:21.226Z,9.55
2022-09-13T23:36:49.091Z,7.03
2022-09-13T23:39:18.537Z,7.18
2022-09-13T23:41:47.739Z,6.10
2022-09-13T23:44:15.370Z,5.35
2022-09-13T23:49:17.264Z,7.65
2022-09-13T23:51:44.240Z,7.50
2022-09-13T23:54:13.213Z,7.97
2022-09-13T23:56:40.569Z,7.22
2022-09-13T23:59:07.665Z,8.65
